createdAt,value
2017-06-27T00:00:46.887Z,5.90
2017-06-27T00:03:14.959Z,6.90
2017-06-27T00:05:43.069Z,6.60
2017-06-27T00:08:11.127Z,6.57
2017-06-27T00:10:39.194Z,6.90
2017-06-27T00:13:07.271Z,6.20
2017-06-27T00:15:35.351Z,7.17
2017-06-27T00:18:03.415Z,5.73
2017-06-27T00:20:31.486Z,7.77
2017-06-27T00:22:59.559Z,6.73
2017-06-27T00:25:27.628Z,6.77
2017-06-27T00:27:55.703Z,6.93
2017-06-27T00:30:23.771Z,5.83
2017-06-27T00:32:51.844Z,6.60
2017-06-27T00:35:19.916Z,6.23
2017-06-27T00:37:47.987Z,6.90
2017-06-27T00:40:16.051Z,6.07
2017-06-27T00:42:44.135Z,6.43
2017-06-27T00:45:12.632Z,5.90
2017-06-27T00:47:41.479Z,7.17
2017-06-27T00:50:09.539Z,6.80
2017-06-27T00:52:37.619Z,5.37
2017-06-27T00:55:05.699Z,7.30
2017-06-27T00:57:33.772Z,6.60
2017-06-27T01:00:01.850Z,7.70
2017-06-27T01:02:29.924Z,7.07
2017-06-27T01:04:57.995Z,7.50
2017-06-27T01:07:26.079Z,6.70
2017-06-27T01:09:54.143Z,6.30
2017-06-27T01:12:22.211Z,6.30
2017-06-27T01:14:50.299Z,6.30
2017-06-27T01:17:18.375Z,7.93
2017-06-27T01:19:46.968Z,7.67
2017-06-27T01:22:15.048Z,6.90
2017-06-27T01:24:43.887Z,7.23
2017-06-27T01:27:11.964Z,8.30
2017-06-27T01:29:40.027Z,7.30
2017-06-27T01:32:08.099Z,7.83
2017-06-27T01:34:36.169Z,6.77
2017-06-27T01:37:04.267Z,10.60
2017-06-27T01:39:32.338Z,7.67
2017-06-27T01:42:00.444Z,7.87
2017-06-27T01:44:29.278Z,7.40
2017-06-27T01:46:57.357Z,7.93
2017-06-27T01:49:25.438Z,7.23
2017-06-27T01:51:53.502Z,7.60
2017-06-27T01:54:21.920Z,8.30
2017-06-27T01:56:49.987Z,7.40
2017-06-27T01:59:18.083Z,8.07
2017-06-27T02:01:46.147Z,7.37
2017-06-27T02:04:15.714Z,6.90
2017-06-27T02:06:43.799Z,9.30
2017-06-27T02:09:11.871Z,8.33
2017-06-27T02:11:39.943Z,7.70
2017-06-27T02:14:08.026Z,8.50
2017-06-27T02:16:36.402Z,7.80
2017-06-27T02:19:04.462Z,9.07
2017-06-27T02:21:32.585Z,10.30
2017-06-27T02:24:01.418Z,9.30
2017-06-27T02:26:29.479Z,8.77
2017-06-27T02:28:57.558Z,9.70
2017-06-27T02:31:25.622Z,9.30
2017-06-27T02:33:53.691Z,9.40
2017-06-27T02:36:21.759Z,9.47
2017-06-27T02:38:49.840Z,10.00
2017-06-27T02:41:17.908Z,9.50
2017-06-27T02:43:46.006Z,9.20
2017-06-27T02:46:14.071Z,9.67
2017-06-27T02:48:42.138Z,10.03
2017-06-27T02:51:10.214Z,7.50
2017-06-27T02:53:38.279Z,8.13
2017-06-27T02:56:06.383Z,7.80
2017-06-27T02:58:34.456Z,9.33
2017-06-27T03:01:02.535Z,7.67
2017-06-27T03:03:30.604Z,7.77
2017-06-27T03:05:58.687Z,6.33
2017-06-27T03:08:27.530Z,8.30
2017-06-27T03:10:55.618Z,7.03
2017-06-27T03:13:23.690Z,7.23
2017-06-27T03:15:51.764Z,7.70
2017-06-27T03:18:19.839Z,10.57
2017-06-27T03:20:47.912Z,8.23
2017-06-27T03:23:15.988Z,7.10
2017-06-27T03:25:44.083Z,7.80
2017-06-27T03:28:12.922Z,7.70
2017-06-27T03:30:40.993Z,6.77
2017-06-27T03:33:09.114Z,7.77
2017-06-27T03:35:37.196Z,7.63
2017-06-27T03:38:06.037Z,7.80
2017-06-27T03:40:34.115Z,7.83
2017-06-27T03:43:02.205Z,7.67
2017-06-27T03:45:30.276Z,8.27
2017-06-27T03:47:58.349Z,7.83
2017-06-27T03:50:26.433Z,7.27
2017-06-27T03:52:54.507Z,7.10
2017-06-27T03:55:22.600Z,7.17
2017-06-27T03:57:50.662Z,7.43
2017-06-27T04:00:19.506Z,7.67
2017-06-27T04:02:47.696Z,6.97
2017-06-27T04:05:15.779Z,7.87
2017-06-27T04:07:43.865Z,10.70
2017-06-27T04:10:11.932Z,9.50
2017-06-27T04:12:40.003Z,9.20
2017-06-27T04:15:08.071Z,9.07
2017-06-27T04:17:36.146Z,8.43
2017-06-27T04:20:04.220Z,8.20
2017-06-27T04:22:32.279Z,8.10
2017-06-27T04:25:00.347Z,8.60
2017-06-27T04:27:28.419Z,8.67
2017-06-27T04:29:56.491Z,8.67
2017-06-27T04:32:24.641Z,8.60
2017-06-27T04:34:52.719Z,8.07
2017-06-27T04:37:20.790Z,8.47
2017-06-27T04:39:48.871Z,8.73
2017-06-27T04:42:16.935Z,9.40
2017-06-27T04:44:45.034Z,8.73
2017-06-27T04:47:13.100Z,8.90
2017-06-27T04:49:41.165Z,9.40
2017-06-27T04:52:09.256Z,9.70
2017-06-27T04:54:37.320Z,8.13
2017-06-27T04:57:05.394Z,8.70
2017-06-27T04:59:33.462Z,8.23
2017-06-27T05:02:01.539Z,8.93
2017-06-27T05:04:29.603Z,8.77
2017-06-27T05:06:57.686Z,9.70
2017-06-27T05:09:25.767Z,8.20
2017-06-27T05:11:53.851Z,9.10
2017-06-27T05:14:21.947Z,9.83
2017-06-27T05:16:50.012Z,8.53
2017-06-27T05:19:18.855Z,10.43
2017-06-27T05:21:46.928Z,8.50
2017-06-27T05:24:15.426Z,10.00
2017-06-27T05:26:43.495Z,9.63
2017-06-27T05:29:11.575Z,8.60
2017-06-27T05:31:39.646Z,8.13
2017-06-27T05:34:07.719Z,9.10
2017-06-27T05:36:35.856Z,9.90
2017-06-27T05:39:03.952Z,12.33
2017-06-27T05:41:32.018Z,10.13
2017-06-27T05:44:00.114Z,9.67
2017-06-27T05:46:28.207Z,10.77
2017-06-27T05:48:57.054Z,10.07
2017-06-27T05:51:25.143Z,10.20
2017-06-27T05:53:53.218Z,12.43
2017-06-27T05:56:21.307Z,17.57
2017-06-27T05:58:50.143Z,11.70
2017-06-27T06:01:18.262Z,12.77
2017-06-27T06:03:46.335Z,11.80
2017-06-27T06:06:14.412Z,10.97
2017-06-27T06:08:42.488Z,11.03
2017-06-27T06:11:11.331Z,12.07
2017-06-27T06:13:39.407Z,10.30
2017-06-27T06:16:07.479Z,10.80
2017-06-27T06:18:45.476Z,10.90
2017-06-27T06:21:13.543Z,9.87
2017-06-27T06:23:41.615Z,9.17
2017-06-27T06:26:09.687Z,9.30
2017-06-27T06:28:37.775Z,10.97
2017-06-27T06:31:05.847Z,9.03
2017-06-27T06:33:33.919Z,9.07
2017-06-27T06:36:01.999Z,8.30
2017-06-27T06:38:30.072Z,7.33
2017-06-27T06:40:58.148Z,7.50
2017-06-27T06:43:26.218Z,8.27
2017-06-27T06:45:54.314Z,11.43
2017-06-27T06:48:22.374Z,12.10
2017-06-27T06:50:50.446Z,11.50
2017-06-27T06:53:18.536Z,12.30
2017-06-27T06:55:46.607Z,11.33
2017-06-27T06:58:14.683Z,11.37
2017-06-27T07:00:43.520Z,8.43
2017-06-27T07:03:11.608Z,7.97
2017-06-27T07:05:39.704Z,13.80
2017-06-27T07:08:07.803Z,8.80
2017-06-27T07:10:36.669Z,8.80
2017-06-27T07:13:04.744Z,7.70
2017-06-27T07:15:32.875Z,7.17
2017-06-27T07:18:00.944Z,7.73
2017-06-27T07:20:29.028Z,8.07
2017-06-27T07:22:57.095Z,10.47
2017-06-27T07:25:25.176Z,8.50
2017-06-27T07:27:53.250Z,8.27
2017-06-27T07:30:21.333Z,13.13
2017-06-27T07:32:49.419Z,8.00
2017-06-27T07:35:17.515Z,8.77
2017-06-27T07:37:45.595Z,9.03
2017-06-27T07:40:14.443Z,8.03
2017-06-27T07:42:42.538Z,9.37
2017-06-27T07:45:10.616Z,9.63
2017-06-27T07:47:39.462Z,9.40
2017-06-27T07:50:07.531Z,10.00
2017-06-27T07:52:35.623Z,10.20
2017-06-27T07:55:03.727Z,9.97
2017-06-27T07:57:31.799Z,11.33
2017-06-27T07:59:59.879Z,11.03
2017-06-27T08:02:27.963Z,10.80
2017-06-27T08:04:56.046Z,10.30
2017-06-27T08:07:24.143Z,10.37
2017-06-27T08:09:52.218Z,12.50
2017-06-27T08:12:20.315Z,11.83
2017-06-27T08:14:48.403Z,11.20
2017-06-27T08:17:16.491Z,10.63
2017-06-27T08:19:44.560Z,8.73
2017-06-27T08:22:13.420Z,11.10
2017-06-27T08:24:41.504Z,10.77
2017-06-27T08:27:09.572Z,9.93
2017-06-27T08:29:37.660Z,10.13
2017-06-27T08:32:06.505Z,10.73
2017-06-27T08:34:34.598Z,10.30
2017-06-27T08:37:02.673Z,11.03
2017-06-27T08:39:30.760Z,10.10
2017-06-27T08:41:58.834Z,10.33
2017-06-27T08:44:26.903Z,8.80
2017-06-27T08:46:54.987Z,9.80
2017-06-27T08:49:23.816Z,8.33
2017-06-27T08:51:51.895Z,9.77
2017-06-27T08:54:20.349Z,9.93
2017-06-27T08:56:48.437Z,8.90
2017-06-27T08:59:16.491Z,8.90
2017-06-27T09:01:44.591Z,8.40
2017-06-27T09:04:12.664Z,11.43
2017-06-27T09:06:40.731Z,9.17
2017-06-27T09:09:08.807Z,9.90
2017-06-27T09:11:36.891Z,11.10
2017-06-27T09:14:04.971Z,9.70
2017-06-27T09:16:33.052Z,10.20
2017-06-27T09:19:01.146Z,10.53
2017-06-27T09:21:29.207Z,10.17
2017-06-27T09:23:57.294Z,9.40
2017-06-27T09:26:26.135Z,9.90
2017-06-27T09:28:54.207Z,9.90
2017-06-27T09:31:22.281Z,9.80
2017-06-27T09:33:50.358Z,10.57
2017-06-27T09:36:18.442Z,9.67
2017-06-27T09:38:46.535Z,9.00
2017-06-27T09:41:14.629Z,12.37
2017-06-27T09:43:43.459Z,8.07
2017-06-27T09:46:11.555Z,7.00
2017-06-27T09:48:39.643Z,6.87
2017-06-27T09:51:07.711Z,6.40
2017-06-27T09:53:35.787Z,5.20
2017-06-27T09:56:03.859Z,6.07
2017-06-27T09:58:31.939Z,5.67
2017-06-27T10:01:00.012Z,6.10
2017-06-27T10:03:28.099Z,5.27
2017-06-27T10:05:56.939Z,6.20
2017-06-27T10:08:24.999Z,5.40
2017-06-27T10:10:53.207Z,6.50
2017-06-27T10:13:21.272Z,6.03
2017-06-27T10:15:49.371Z,5.90
2017-06-27T10:18:17.439Z,6.13
2017-06-27T10:20:45.691Z,5.90
2017-06-27T10:23:13.763Z,6.20
2017-06-27T10:25:41.852Z,4.90
2017-06-27T10:28:09.918Z,6.07
2017-06-27T10:30:37.997Z,4.87
2017-06-27T10:33:06.067Z,4.90
2017-06-27T10:35:34.134Z,5.70
2017-06-27T10:38:02.539Z,5.33
2017-06-27T10:40:31.368Z,5.37
2017-06-27T10:42:59.443Z,4.73
2017-06-27T10:45:27.515Z,5.50
2017-06-27T10:47:55.643Z,5.33
2017-06-27T10:50:24.479Z,5.93
2017-06-27T10:52:52.551Z,5.20
2017-06-27T10:55:20.627Z,5.70
2017-06-27T10:57:48.701Z,7.20
2017-06-27T11:00:16.770Z,8.63
2017-06-27T11:02:44.840Z,5.73
2017-06-27T11:05:12.910Z,6.10
2017-06-27T11:07:40.977Z,5.90
2017-06-27T11:10:09.259Z,7.13
2017-06-27T11:12:37.319Z,6.23
2017-06-27T11:15:05.387Z,5.97
2017-06-27T11:17:33.470Z,6.50
2017-06-27T11:20:01.535Z,6.40
2017-06-27T11:22:29.620Z,6.10
2017-06-27T11:24:57.724Z,5.30
2017-06-27T11:27:25.808Z,5.03
2017-06-27T11:29:53.879Z,5.43
2017-06-27T11:32:21.964Z,6.50
2017-06-27T11:34:50.032Z,5.40
2017-06-27T11:37:18.105Z,6.87
2017-06-27T11:39:46.172Z,5.50
2017-06-27T11:42:14.239Z,6.30
2017-06-27T11:44:42.323Z,4.83
2017-06-27T11:47:10.385Z,5.67
2017-06-27T11:49:38.460Z,6.60
2017-06-27T11:52:06.527Z,7.83
2017-06-27T11:54:34.627Z,6.13
2017-06-27T11:57:03.463Z,4.97
2017-06-27T11:59:31.527Z,4.73
2017-06-27T12:02:10.555Z,4.80
2017-06-27T12:04:41.493Z,4.20
2017-06-27T12:07:21.599Z,6.60
2017-06-27T12:09:50.451Z,4.80
2017-06-27T12:12:18.531Z,4.10
2017-06-27T12:14:46.607Z,4.13
2017-06-27T12:17:14.720Z,5.57
2017-06-27T12:19:43.560Z,4.17
2017-06-27T12:22:11.648Z,3.93
2017-06-27T12:24:39.715Z,4.60
2017-06-27T12:27:07.816Z,4.83
2017-06-27T12:29:35.877Z,3.40
2017-06-27T12:32:03.948Z,3.60
2017-06-27T12:34:32.032Z,4.17
2017-06-27T12:37:00.095Z,6.10
2017-06-27T12:39:28.177Z,4.43
2017-06-27T12:41:56.240Z,5.37
2017-06-27T12:44:24.331Z,4.80
2017-06-27T12:46:52.416Z,4.83
2017-06-27T12:49:20.483Z,3.80
2017-06-27T12:51:48.560Z,4.10
2017-06-27T12:54:16.633Z,4.67
2017-06-27T12:56:45.475Z,4.20
2017-06-27T12:59:13.543Z,4.57
2017-06-27T13:01:41.636Z,4.27
2017-06-27T13:04:09.707Z,4.80
2017-06-27T13:06:37.788Z,6.23
2017-06-27T13:09:05.871Z,3.70
2017-06-27T13:11:34.720Z,3.80
2017-06-27T13:14:02.800Z,4.03
2017-06-27T13:16:30.922Z,4.50
2017-06-27T13:18:58.993Z,3.60
2017-06-27T13:21:28.631Z,3.40
2017-06-27T13:23:56.723Z,3.73
2017-06-27T13:26:24.794Z,5.13
2017-06-27T13:28:52.887Z,4.47
2017-06-27T13:31:20.963Z,3.83
2017-06-27T13:33:49.049Z,4.20
2017-06-27T13:36:17.908Z,5.57
2017-06-27T13:38:46.004Z,3.63
2017-06-27T13:41:14.092Z,4.30
2017-06-27T13:43:42.164Z,4.37
2017-06-27T13:46:10.247Z,5.87
2017-06-27T13:48:38.320Z,3.73
2017-06-27T13:51:06.392Z,4.33
2017-06-27T13:53:34.503Z,3.57
2017-06-27T13:56:02.575Z,4.20
2017-06-27T13:58:30.677Z,3.33
2017-06-27T14:00:58.757Z,4.50
2017-06-27T14:03:26.840Z,3.47
2017-06-27T14:05:55.672Z,3.73
2017-06-27T14:08:23.780Z,4.03
2017-06-27T14:10:51.860Z,5.57
2017-06-27T14:13:19.932Z,5.20
2017-06-27T14:15:48.003Z,4.83
2017-06-27T14:18:16.077Z,4.43
2017-06-27T14:20:44.147Z,4.50
2017-06-27T14:23:12.220Z,5.20
2017-06-27T14:25:40.330Z,4.60
2017-06-27T14:28:08.406Z,4.40
2017-06-27T14:30:36.476Z,4.77
2017-06-27T14:33:04.547Z,4.80
2017-06-27T14:35:32.617Z,4.10
2017-06-27T14:38:00.711Z,4.70
2017-06-27T14:40:28.772Z,4.30
2017-06-27T14:42:56.854Z,4.73
2017-06-27T14:45:24.927Z,4.90
2017-06-27T14:47:53.026Z,4.47
2017-06-27T14:50:21.096Z,4.30
2017-06-27T14:52:49.176Z,5.60
2017-06-27T14:55:17.251Z,5.00
2017-06-27T14:57:45.332Z,4.50
2017-06-27T15:00:13.695Z,5.97
2017-06-27T15:02:41.763Z,5.17
2017-06-27T15:05:09.846Z,4.87
2017-06-27T15:07:37.937Z,5.90
2017-06-27T15:10:06.804Z,5.10
2017-06-27T15:12:34.933Z,5.70
2017-06-27T15:15:03.007Z,5.13
2017-06-27T15:17:31.090Z,5.20
2017-06-27T15:19:59.156Z,5.40
2017-06-27T15:22:27.254Z,6.00
2017-06-27T15:24:55.323Z,5.40
2017-06-27T15:27:23.407Z,5.83
2017-06-27T15:29:51.484Z,5.83
2017-06-27T15:32:19.580Z,5.60
2017-06-27T15:34:47.651Z,5.30
2017-06-27T15:37:15.725Z,5.60
2017-06-27T15:39:43.836Z,5.33
2017-06-27T15:42:11.903Z,5.53
2017-06-27T15:44:40.019Z,6.40
2017-06-27T15:47:08.105Z,5.70
2017-06-27T15:49:36.203Z,6.93
2017-06-27T15:52:05.047Z,5.50
2017-06-27T15:54:33.163Z,6.10
2017-06-27T15:57:02.012Z,6.30
2017-06-27T15:59:30.096Z,5.53
2017-06-27T16:01:58.183Z,5.50
2017-06-27T16:04:26.256Z,6.10
2017-06-27T16:06:54.347Z,5.73
2017-06-27T16:09:22.431Z,6.00
2017-06-27T16:11:50.532Z,5.90
2017-06-27T16:14:18.677Z,5.97
2017-06-27T16:16:46.752Z,6.60
2017-06-27T16:19:14.831Z,5.50
2017-06-27T16:21:42.928Z,5.10
2017-06-27T16:24:11.005Z,5.03
2017-06-27T16:26:39.096Z,5.77
2017-06-27T16:29:07.179Z,6.53
2017-06-27T16:31:35.251Z,5.50
2017-06-27T16:34:03.336Z,5.97
2017-06-27T16:36:32.180Z,6.07
2017-06-27T16:39:00.257Z,5.83
2017-06-27T16:41:28.324Z,6.10
2017-06-27T16:43:57.011Z,7.17
2017-06-27T16:46:25.085Z,5.00
2017-06-27T16:48:53.172Z,7.10
2017-06-27T16:51:21.239Z,5.67
2017-06-27T16:53:49.336Z,7.80
2017-06-27T16:56:17.403Z,9.10
2017-06-27T16:58:48.354Z,5.70
2017-06-27T17:01:17.303Z,5.77
2017-06-27T17:03:45.370Z,4.77
2017-06-27T17:06:13.452Z,5.30
2017-06-27T17:08:41.675Z,4.80
2017-06-27T17:11:09.761Z,5.10
2017-06-27T17:13:38.636Z,5.83
2017-06-27T17:16:07.474Z,5.50
2017-06-27T17:18:35.548Z,5.33
2017-06-27T17:21:03.664Z,4.80
2017-06-27T17:23:31.739Z,4.97
2017-06-27T17:25:59.824Z,5.67
2017-06-27T17:28:27.976Z,5.30
2017-06-27T17:30:56.051Z,5.30
2017-06-27T17:33:24.203Z,4.40
2017-06-27T17:35:52.279Z,5.70
2017-06-27T17:38:20.360Z,4.97
2017-06-27T17:40:48.446Z,3.77
2017-06-27T17:43:16.519Z,4.63
2017-06-27T17:45:44.587Z,4.27
2017-06-27T17:48:12.673Z,3.60
2017-06-27T17:50:41.507Z,4.23
2017-06-27T17:53:09.585Z,6.97
2017-06-27T17:55:37.716Z,4.07
2017-06-27T17:58:05.807Z,3.60
2017-06-27T18:00:33.897Z,3.90
2017-06-27T18:03:01.985Z,3.63
2017-06-27T18:05:30.068Z,3.50
2017-06-27T18:07:58.140Z,3.60
2017-06-27T18:10:26.233Z,5.77
2017-06-27T18:12:54.489Z,3.53
2017-06-27T18:15:28.703Z,3.90
2017-06-27T18:17:56.775Z,3.90
2017-06-27T18:20:24.847Z,4.27
2017-06-27T18:22:52.931Z,3.63
2017-06-27T18:25:20.999Z,4.27
2017-06-27T18:27:49.076Z,4.17
2017-06-27T18:30:17.143Z,4.03
2017-06-27T18:32:45.220Z,3.60
2017-06-27T18:35:13.295Z,4.10
2017-06-27T18:37:41.372Z,4.10
2017-06-27T18:40:09.457Z,4.80
2017-06-27T18:42:38.300Z,4.70
2017-06-27T18:45:06.371Z,5.30
2017-06-27T18:47:34.443Z,4.60
2017-06-27T18:50:02.524Z,4.90
2017-06-27T18:52:30.596Z,4.70
2017-06-27T18:54:58.807Z,5.03
2017-06-27T18:57:26.893Z,4.80
2017-06-27T18:59:55.042Z,5.10
2017-06-27T19:02:23.123Z,3.97
2017-06-27T19:04:51.192Z,6.33
2017-06-27T19:07:19.271Z,5.27
2017-06-27T19:09:47.345Z,4.90
2017-06-27T19:12:16.220Z,6.30
2017-06-27T19:14:44.352Z,4.40
2017-06-27T19:17:12.718Z,4.17
2017-06-27T19:19:40.860Z,4.50
2017-06-27T19:22:08.937Z,4.87
2017-06-27T19:24:37.020Z,4.30
2017-06-27T19:27:05.925Z,4.77
2017-06-27T19:29:34.024Z,4.50
2017-06-27T19:32:02.104Z,7.13
2017-06-27T19:34:30.175Z,4.53
2017-06-27T19:36:58.321Z,4.40
2017-06-27T19:39:26.387Z,4.63
2017-06-27T19:41:54.464Z,4.10
2017-06-27T19:44:22.527Z,4.47
2017-06-27T19:46:50.636Z,5.07
2017-06-27T19:49:19.487Z,4.70
2017-06-27T19:51:47.569Z,4.50
2017-06-27T19:54:15.707Z,5.00
2017-06-27T19:56:43.796Z,5.00
2017-06-27T19:59:11.888Z,4.30
2017-06-27T20:01:39.957Z,6.00
2017-06-27T20:04:08.797Z,4.67
2017-06-27T20:06:36.867Z,4.70
2017-06-27T20:09:04.959Z,4.43
2017-06-27T20:11:33.823Z,7.40
2017-06-27T20:14:01.895Z,7.13
2017-06-27T20:16:29.979Z,5.03
2017-06-27T20:18:58.103Z,5.53
2017-06-27T20:21:26.939Z,5.17
2017-06-27T20:23:55.015Z,4.80
2017-06-27T20:26:23.092Z,6.00
2017-06-27T20:28:51.225Z,4.63
2017-06-27T20:34:16.173Z,5.43
2017-06-27T20:36:44.256Z,4.57
2017-06-27T20:39:12.345Z,5.50
2017-06-27T20:41:40.483Z,5.30
2017-06-27T20:47:05.342Z,5.20
2017-06-27T20:49:33.511Z,5.33
2017-06-27T20:52:02.425Z,5.10
2017-06-27T20:54:30.531Z,5.60
2017-06-27T20:56:58.680Z,6.73
2017-06-27T20:59:26.858Z,5.80
2017-06-27T21:01:54.935Z,6.50
2017-06-27T21:04:23.072Z,5.80
2017-06-27T21:06:51.335Z,6.30
2017-06-27T21:09:19.411Z,6.07
2017-06-27T21:11:47.499Z,6.23
2017-06-27T21:14:15.563Z,5.97
2017-06-27T21:16:43.712Z,6.10
2017-06-27T21:19:11.856Z,6.90
2017-06-27T21:21:40.002Z,5.90
2017-06-27T21:24:08.925Z,6.57
2017-06-27T21:26:37.025Z,6.13
2017-06-27T21:29:05.207Z,6.30
2017-06-27T21:31:33.280Z,6.10
2017-06-27T21:34:01.422Z,6.50
2017-06-27T21:36:29.482Z,7.23
2017-06-27T21:38:57.615Z,5.53
2017-06-27T21:41:25.700Z,6.63
2017-06-27T21:43:53.767Z,6.80
2017-06-27T21:46:21.839Z,6.97
2017-06-27T21:48:50.683Z,7.03
2017-06-27T21:51:18.757Z,6.53
2017-06-27T21:53:46.859Z,6.37
2017-06-27T21:56:14.931Z,6.77
2017-06-27T21:58:43.008Z,6.33
2017-06-27T22:01:11.115Z,7.20
2017-06-27T22:03:39.188Z,7.50
2017-06-27T22:06:07.255Z,6.57
2017-06-27T22:08:35.335Z,7.37
2017-06-27T22:11:03.491Z,7.80
2017-06-27T22:13:32.373Z,6.87
2017-06-27T22:16:00.431Z,6.50
2017-06-27T22:18:28.561Z,5.80
2017-06-27T22:20:56.620Z,5.87
2017-06-27T22:23:24.719Z,5.70
2017-06-27T22:25:52.788Z,5.10
2017-06-27T22:28:20.859Z,5.87
2017-06-27T22:30:48.974Z,6.63
2017-06-27T22:33:17.045Z,7.03
2017-06-27T22:35:45.125Z,6.00
2017-06-27T22:38:13.188Z,6.20
2017-06-27T22:40:41.275Z,6.27
2017-06-27T22:43:10.107Z,6.83
2017-06-27T22:45:38.180Z,6.63
2017-06-27T22:48:06.251Z,6.30
2017-06-27T22:50:34.343Z,6.83
2017-06-27T22:53:02.406Z,6.63
2017-06-27T22:55:30.472Z,7.10
2017-06-27T22:57:58.542Z,6.97
2017-06-27T23:00:26.611Z,7.53
2017-06-27T23:02:54.691Z,6.93
2017-06-27T23:05:22.779Z,6.90
2017-06-27T23:07:50.853Z,6.43
2017-06-27T23:10:18.927Z,5.87
2017-06-27T23:12:47.003Z,6.17
2017-06-27T23:15:15.070Z,6.43
2017-06-27T23:17:43.172Z,6.90
2017-06-27T23:20:11.230Z,6.97
2017-06-27T23:22:39.303Z,8.10
2017-06-27T23:25:07.375Z,6.67
2017-06-27T23:27:35.448Z,5.87
2017-06-27T23:30:03.529Z,6.23
2017-06-27T23:32:31.595Z,6.83
2017-06-27T23:34:59.669Z,7.10
2017-06-27T23:37:27.738Z,6.13
2017-06-27T23:39:55.830Z,5.77
2017-06-27T23:42:24.670Z,7.37
2017-06-27T23:44:52.748Z,7.10
2017-06-27T23:47:20.834Z,8.63
2017-06-27T23:49:48.899Z,7.87
2017-06-27T23:52:16.974Z,7.00
2017-06-27T23:54:45.044Z,6.87
2017-06-27T23:57:13.143Z,6.93
2017-06-27T23:59:41.222Z,6.97
